Time;durP1;ratioP1;P1;durP2;ratioP2;P2;SDS_P1;SDS_P2;PMS_P1;PMS_P2;Temp;Humidity;BMP_temperature;BMP_pressure;BME280_temperature;BME280_humidity;BME280_pressure;Samples;Min_cycle;Max_cycle;Signal;HPM_P1;HPM_P2
2022/07/16 00:01:59;;;;;;;4.72;3.05;;;;;;;;;;1705499;83;21012;-67
2022/07/16 00:04:25;;;;;;;6.30;2.98;;;;;;;;;;1729673;82;21072;-66
2022/07/16 00:06:51;;;;;;;6.50;3.27;;;;;;;;;;1730554;83;21048;-66
2022/07/16 00:09:17;;;;;;;3.70;3.02;;;;;;;;;;1731704;81;21560;-66
2022/07/16 00:11:43;;;;;;;4.85;3.05;;;;;;;;;;1730703;82;21044;-66
2022/07/16 00:14:10;;;;;;;4.58;3.08;;;;;;;;;;1732978;82;21064;-66
2022/07/16 00:16:37;;;;;;;4.03;3.08;;;;;;;;;;1738473;82;21072;-66
2022/07/16 00:19:18;;;;;;;3.90;2.90;;;;;;;;;;1738053;81;21044;-67
2022/07/16 00:21:44;;;;;;;5.12;3.25;;;;;;;;;;1729527;82;21115;-66
2022/07/16 00:24:11;;;;;;;3.65;2.90;;;;;;;;;;1730156;83;21005;-67
2022/07/16 00:26:37;;;;;;;3.27;2.83;;;;;;;;;;1730002;83;21100;-67
2022/07/16 00:29:03;;;;;;;5.70;2.95;;;;;;;;;;1729864;81;21120;-67
2022/07/16 00:31:29;;;;;;;5.58;2.95;;;;;;;;;;1732487;82;21506;-67
2022/07/16 00:33:55;;;;;;;4.22;3.00;;;;;;;;;;1724453;82;21559;-67
2022/07/16 00:36:21;;;;;;;4.65;3.10;;;;;;;;;;1701340;84;21068;-67
2022/07/16 00:38:48;;;;;;;5.20;3.12;;;;;;;;;;1702250;81;21130;-67
2022/07/16 00:41:17;;;;;;;4.62;3.22;;;;;;;;;;1727311;82;21113;-67
2022/07/16 00:43:53;;;;;;;3.87;3.10;;;;;;;;;;1703094;83;21571;-67
2022/07/16 00:46:19;;;;;;;5.15;3.20;;;;;;;;;;1731216;83;21048;-67
2022/07/16 00:48:45;;;;;;;7.28;3.30;;;;;;;;;;1719763;82;21052;-67
2022/07/16 00:51:12;;;;;;;5.92;3.37;;;;;;;;;;1719268;82;21098;-67
2022/07/16 00:53:38;;;;;;;5.97;3.70;;;;;;;;;;1703602;83;21064;-67
2022/07/16 00:56:09;;;;;;;4.28;3.50;;;;;;;;;;1721439;83;21056;-67
2022/07/16 00:58:39;;;;;;;4.78;3.20;;;;;;;;;;1712080;82;21060;-67
2022/07/16 01:03:53;;;;;;;4.25;3.33;;;;;;;;;;1708581;78;21146;-62
2022/07/16 01:06:20;;;;;;;4.30;3.62;;;;;;;;;;1645265;86;21071;-63
2022/07/16 01:08:48;;;;;;;5.70;4.17;;;;;;;;;;1645927;87;21088;-61
2022/07/16 01:11:16;;;;;;;6.87;3.62;;;;;;;;;;1646129;87;21101;-61
2022/07/16 01:13:43;;;;;;;5.25;3.20;;;;;;;;;;1646170;87;21076;-62
2022/07/16 01:16:09;;;;;;;5.28;3.60;;;;;;;;;;1615881;87;21064;-63
2022/07/16 01:18:36;;;;;;;4.92;3.60;;;;;;;;;;1640835;87;21084;-63
2022/07/16 01:21:03;;;;;;;4.08;3.50;;;;;;;;;;1641266;87;21544;-62
2022/07/16 01:23:29;;;;;;;4.70;3.80;;;;;;;;;;1641782;87;21023;-62
2022/07/16 01:25:55;;;;;;;4.47;3.60;;;;;;;;;;1643807;86;21045;-62
2022/07/16 01:28:21;;;;;;;5.65;3.50;;;;;;;;;;1644652;87;21061;-61
2022/07/16 01:30:47;;;;;;;4.83;3.77;;;;;;;;;;1616780;89;21070;-62
2022/07/16 01:33:22;;;;;;;7.92;3.65;;;;;;;;;;1643105;87;21634;-61
2022/07/16 01:35:48;;;;;;;4.37;3.62;;;;;;;;;;1643791;87;21642;-62
2022/07/16 01:38:16;;;;;;;5.10;3.95;;;;;;;;;;1644574;87;21085;-61
2022/07/16 01:40:43;;;;;;;7.47;4.58;;;;;;;;;;1644469;87;21100;-62
2022/07/16 01:43:15;;;;;;;5.42;4.00;;;;;;;;;;1615874;89;21601;-61
2022/07/16 01:45:41;;;;;;;4.67;3.75;;;;;;;;;;1648882;86;21101;-61
2022/07/16 01:48:07;;;;;;;6.62;4.12;;;;;;;;;;1673613;86;21094;-61
2022/07/16 01:50:34;;;;;;;5.83;3.72;;;;;;;;;;1673203;86;21137;-61
2022/07/16 01:53:00;;;;;;;4.55;3.92;;;;;;;;;;1668506;85;21371;-62
2022/07/16 01:55:26;;;;;;;6.05;4.10;;;;;;;;;;1669855;85;21032;-62
2022/07/16 01:57:52;;;;;;;5.50;3.70;;;;;;;;;;1673415;86;21573;-62
2022/07/16 02:00:18;;;;;;;6.67;3.85;;;;;;;;;;1673505;86;21026;-62
2022/07/16 02:02:45;;;;;;;6.03;3.35;;;;;;;;;;1665369;85;21046;-62
2022/07/16 02:05:12;;;;;;;4.60;3.75;;;;;;;;;;1658927;84;21121;-62
2022/07/16 02:07:39;;;;;;;4.97;3.62;;;;;;;;;;1673673;85;21498;-62
2022/07/16 02:10:05;;;;;;;8.25;4.40;;;;;;;;;;1673726;86;20998;-62
2022/07/16 02:12:32;;;;;;;4.97;4.15;;;;;;;;;;1672524;85;21109;-62
2022/07/16 02:14:59;;;;;;;6.80;3.90;;;;;;;;;;1673668;84;21061;-63
2022/07/16 02:17:25;;;;;;;6.60;4.00;;;;;;;;;;1678891;85;21074;-62
2022/07/16 02:19:51;;;;;;;5.40;4.17;;;;;;;;;;1679033;85;21125;-62
2022/07/16 02:22:18;;;;;;;7.60;4.03;;;;;;;;;;1674597;85;21085;-62
2022/07/16 02:24:44;;;;;;;5.83;4.05;;;;;;;;;;1659222;84;21081;-62
2022/07/16 02:27:10;;;;;;;6.92;4.70;;;;;;;;;;1673750;86;21345;-61
2022/07/16 02:29:36;;;;;;;8.13;4.10;;;;;;;;;;1673469;86;21054;-62
2022/07/16 02:32:04;;;;;;;7.25;4.35;;;;;;;;;;1673808;85;21066;-62
2022/07/16 02:34:30;;;;;;;6.08;4.58;;;;;;;;;;1675240;84;21065;-62
2022/07/16 02:36:56;;;;;;;6.60;3.98;;;;;;;;;;1664137;85;21073;-62
2022/07/16 02:39:23;;;;;;;6.12;3.98;;;;;;;;;;1659811;86;21050;-62
2022/07/16 02:41:49;;;;;;;5.72;3.83;;;;;;;;;;1661066;85;21053;-62
2022/07/16 02:44:16;;;;;;;6.67;4.22;;;;;;;;;;1673501;86;21050;-62
2022/07/16 02:46:42;;;;;;;4.60;4.05;;;;;;;;;;1658583;84;21078;-62
2022/07/16 02:49:08;;;;;;;7.28;4.17;;;;;;;;;;1654712;87;21113;-62
2022/07/16 02:51:34;;;;;;;4.60;3.52;;;;;;;;;;1654457;87;21583;-62
2022/07/16 02:54:00;;;;;;;5.25;3.90;;;;;;;;;;1677996;85;21073;-62
2022/07/16 02:56:26;;;;;;;6.92;4.10;;;;;;;;;;1667313;84;21074;-62
2022/07/16 02:58:53;;;;;;;5.33;3.17;;;;;;;;;;1650019;87;21097;-62
2022/07/16 03:01:19;;;;;;;6.22;3.50;;;;;;;;;;1650255;87;21133;-60
2022/07/16 03:03:46;;;;;;;6.08;3.30;;;;;;;;;;1650355;85;21093;-63
2022/07/16 03:06:13;;;;;;;4.70;3.35;;;;;;;;;;1681880;84;21019;-62
2022/07/16 03:08:40;;;;;;;4.62;3.25;;;;;;;;;;1686279;85;21041;-62
2022/07/16 03:11:06;;;;;;;4.65;3.17;;;;;;;;;;1683509;85;21077;-61
2022/07/16 03:13:32;;;;;;;4.55;3.27;;;;;;;;;;1681493;85;21062;-62
2022/07/16 03:15:59;;;;;;;4.97;3.45;;;;;;;;;;1682053;84;21033;-61
2022/07/16 03:18:25;;;;;;;5.53;3.25;;;;;;;;;;1686867;85;21010;-62
2022/07/16 03:20:51;;;;;;;4.85;3.20;;;;;;;;;;1678550;83;21151;-63
2022/07/16 03:23:18;;;;;;;5.60;3.25;;;;;;;;;;1689787;85;21049;-63
2022/07/16 03:25:44;;;;;;;4.53;3.00;;;;;;;;;;1700616;84;21615;-61
2022/07/16 03:28:10;;;;;;;5.75;2.92;;;;;;;;;;1679663;85;21084;-62
2022/07/16 03:30:36;;;;;;;3.90;3.10;;;;;;;;;;1681479;85;21045;-62
2022/07/16 03:33:03;;;;;;;3.40;2.77;;;;;;;;;;1681854;85;21137;-62
2022/07/16 03:35:30;;;;;;;4.05;2.62;;;;;;;;;;1682762;84;21135;-62
2022/07/16 03:40:41;;;;;;;4.47;2.52;;;;;;;;;;1687490;85;21579;-62
2022/07/16 03:43:07;;;;;;;4.12;2.75;;;;;;;;;;1687784;85;21045;-62
2022/07/16 03:45:40;;;;;;;7.57;2.73;;;;;;;;;;1668666;84;21616;-62
2022/07/16 03:48:06;;;;;;;4.37;2.77;;;;;;;;;;1665992;85;21420;-63
2022/07/16 03:50:33;;;;;;;4.10;2.70;;;;;;;;;;1667620;85;21012;-62
2022/07/16 03:52:59;;;;;;;4.15;2.58;;;;;;;;;;1689675;85;21010;-62
2022/07/16 03:55:25;;;;;;;5.95;2.45;;;;;;;;;;1700141;84;21057;-62
2022/07/16 03:57:51;;;;;;;3.72;2.55;;;;;;;;;;1696674;84;21190;-62
2022/07/16 04:00:17;;;;;;;4.22;2.30;;;;;;;;;;1672482;86;21120;-62
2022/07/16 04:02:44;;;;;;;3.83;2.60;;;;;;;;;;1689757;85;21084;-62
2022/07/16 04:05:10;;;;;;;4.47;2.67;;;;;;;;;;1692502;84;21112;-62
2022/07/16 04:07:36;;;;;;;4.22;2.60;;;;;;;;;;1673850;84;21501;-63
2022/07/16 04:10:04;;;;;;;4.65;2.67;;;;;;;;;;1657513;86;21077;-63
2022/07/16 04:12:32;;;;;;;4.20;2.80;;;;;;;;;;1680400;85;21026;-63
2022/07/16 04:14:59;;;;;;;5.35;2.67;;;;;;;;;;1687321;84;21155;-63
2022/07/16 04:17:25;;;;;;;3.95;2.90;;;;;;;;;;1669339;85;21053;-63
2022/07/16 04:19:52;;;;;;;4.00;3.00;;;;;;;;;;1666855;85;21076;-63
2022/07/16 04:22:18;;;;;;;5.20;3.22;;;;;;;;;;1661752;85;21084;-62
2022/07/16 04:24:44;;;;;;;4.25;2.62;;;;;;;;;;1673503;85;21543;-62
2022/07/16 04:27:10;;;;;;;6.28;3.47;;;;;;;;;;1681855;84;21365;-62
2022/07/16 04:29:36;;;;;;;6.70;3.50;;;;;;;;;;1681401;85;21116;-63
2022/07/16 04:32:03;;;;;;;5.05;3.20;;;;;;;;;;1675096;85;21045;-62
2022/07/16 04:34:30;;;;;;;7.03;3.25;;;;;;;;;;1675361;84;21173;-62
2022/07/16 04:36:56;;;;;;;5.87;3.08;;;;;;;;;;1692486;84;21120;-62
2022/07/16 04:39:22;;;;;;;5.35;2.60;;;;;;;;;;1686976;85;21112;-62
2022/07/16 04:41:48;;;;;;;3.65;2.65;;;;;;;;;;1676705;85;21149;-62
2022/07/16 04:44:14;;;;;;;4.87;2.90;;;;;;;;;;1672479;86;21061;-63
2022/07/16 04:46:41;;;;;;;3.10;2.45;;;;;;;;;;1661908;84;21034;-63
2022/07/16 04:49:07;;;;;;;3.65;2.20;;;;;;;;;;1667148;85;21588;-62
2022/07/16 04:51:33;;;;;;;2.95;2.58;;;;;;;;;;1679197;85;21017;-63
2022/07/16 04:53:59;;;;;;;3.77;2.60;;;;;;;;;;1672437;86;21045;-63
2022/07/16 04:56:26;;;;;;;3.20;2.40;;;;;;;;;;1679528;84;21124;-63
2022/07/16 04:58:51;;;;;;;3.90;2.65;;;;;;;;;;1681491;85;21037;-63
2022/07/16 05:01:18;;;;;;;3.95;2.52;;;;;;;;;;1677346;85;21539;-63
2022/07/16 05:03:44;;;;;;;6.28;2.70;;;;;;;;;;1672567;84;21191;-63
2022/07/16 05:06:10;;;;;;;6.08;2.87;;;;;;;;;;1694739;83;21064;-63
2022/07/16 05:08:36;;;;;;;3.67;3.02;;;;;;;;;;1698290;83;21093;-63
2022/07/16 05:11:05;;;;;;;4.05;2.83;;;;;;;;;;1657284;86;21147;-63
2022/07/16 05:13:31;;;;;;;5.28;3.10;;;;;;;;;;1699578;84;22189;-63
2022/07/16 05:15:57;;;;;;;6.15;3.67;;;;;;;;;;1700599;83;21037;-63
2022/07/16 05:18:23;;;;;;;5.37;3.60;;;;;;;;;;1700652;84;21546;-63
2022/07/16 05:20:50;;;;;;;5.33;3.70;;;;;;;;;;1696864;84;21587;-62
2022/07/16 05:23:17;;;;;;;5.83;3.60;;;;;;;;;;1688558;84;21048;-62
2022/07/16 05:25:43;;;;;;;5.95;2.92;;;;;;;;;;1695698;83;21072;-62
2022/07/16 05:28:10;;;;;;;5.25;2.98;;;;;;;;;;1694223;84;21709;-62
2022/07/16 05:30:36;;;;;;;6.42;2.80;;;;;;;;;;1689545;84;21523;-62
2022/07/16 05:33:02;;;;;;;3.83;3.12;;;;;;;;;;1686232;84;21038;-62
2022/07/16 05:35:28;;;;;;;5.95;2.80;;;;;;;;;;1685968;84;21029;-61
2022/07/16 05:37:55;;;;;;;4.45;2.75;;;;;;;;;;1689265;84;21044;-62
2022/07/16 05:40:21;;;;;;;4.22;2.80;;;;;;;;;;1687106;84;21068;-61
2022/07/16 05:42:48;;;;;;;3.75;2.75;;;;;;;;;;1693904;83;20973;-62
2022/07/16 05:45:14;;;;;;;3.95;3.02;;;;;;;;;;1697979;83;21540;-62
2022/07/16 05:47:40;;;;;;;4.45;2.52;;;;;;;;;;1694144;83;21072;-61
2022/07/16 05:50:07;;;;;;;5.75;3.00;;;;;;;;;;1696330;83;21116;-62
2022/07/16 05:52:33;;;;;;;5.65;3.17;;;;;;;;;;1696578;83;21056;-62
2022/07/16 05:54:59;;;;;;;5.80;3.17;;;;;;;;;;1689551;83;21058;-62
2022/07/16 05:57:26;;;;;;;4.25;2.60;;;;;;;;;;1674668;84;21088;-62
2022/07/16 05:59:52;;;;;;;3.40;2.77;;;;;;;;;;1685819;84;21050;-62
2022/07/16 06:02:18;;;;;;;4.95;3.00;;;;;;;;;;1681975;84;21059;-62
2022/07/16 06:04:45;;;;;;;6.03;3.08;;;;;;;;;;1672949;84;21144;-62
2022/07/16 06:07:11;;;;;;;7.40;3.05;;;;;;;;;;1657698;85;21479;-62
2022/07/16 06:09:37;;;;;;;3.62;2.50;;;;;;;;;;1679453;85;21056;-62
2022/07/16 06:12:04;;;;;;;3.15;2.60;;;;;;;;;;1670031;85;21126;-62
2022/07/16 06:14:32;;;;;;;3.67;2.30;;;;;;;;;;1657695;85;21078;-62
2022/07/16 06:16:59;;;;;;;3.10;2.40;;;;;;;;;;1672681;85;21039;-61
2022/07/16 06:19:27;;;;;;;4.97;4.08;;;;;;;;;;1666059;85;21594;-62
2022/07/16 06:21:53;;;;;;;6.08;5.47;;;;;;;;;;1671496;85;21076;-62
2022/07/16 06:24:20;;;;;;;4.75;2.45;;;;;;;;;;1670930;85;21033;-62
2022/07/16 06:26:49;;;;;;;3.72;2.33;;;;;;;;;;1680139;83;21064;-62
2022/07/16 06:29:15;;;;;;;5.47;2.42;;;;;;;;;;1676803;84;21057;-62
2022/07/16 06:31:42;;;;;;;3.58;2.12;;;;;;;;;;1676695;83;21094;-62
2022/07/16 06:34:08;;;;;;;3.27;1.98;;;;;;;;;;1682590;85;21112;-62
2022/07/16 06:36:35;;;;;;;3.60;2.08;;;;;;;;;;1684178;85;21092;-62
2022/07/16 06:39:03;;;;;;;4.30;2.33;;;;;;;;;;1686410;83;21079;-62
2022/07/16 06:41:30;;;;;;;6.37;2.50;;;;;;;;;;1686280;84;21155;-62
2022/07/16 06:43:57;;;;;;;3.80;2.40;;;;;;;;;;1681825;83;21182;-62
2022/07/16 06:46:23;;;;;;;4.12;2.30;;;;;;;;;;1667938;85;21077;-62
2022/07/16 06:48:49;;;;;;;2.92;2.00;;;;;;;;;;1682702;84;21556;-62
2022/07/16 06:51:16;;;;;;;5.40;2.30;;;;;;;;;;1685532;84;21112;-62
2022/07/16 06:53:42;;;;;;;4.00;2.12;;;;;;;;;;1692758;84;21544;-62
2022/07/16 06:56:09;;;;;;;3.25;1.90;;;;;;;;;;1686757;83;21037;-65
2022/07/16 06:58:37;;;;;;;2.30;1.70;;;;;;;;;;1686781;85;21089;-62
2022/07/16 07:01:03;;;;;;;5.00;2.47;;;;;;;;;;1681507;85;21061;-62
2022/07/16 07:03:30;;;;;;;3.50;2.02;;;;;;;;;;1692720;83;21147;-62
2022/07/16 07:05:57;;;;;;;3.33;2.08;;;;;;;;;;1685112;84;21049;-62
2022/07/16 07:08:23;;;;;;;3.08;2.00;;;;;;;;;;1681907;83;22296;-62
2022/07/16 07:10:50;;;;;;;2.50;2.27;;;;;;;;;;1685553;84;21053;-62
2022/07/16 07:13:16;;;;;;;4.95;1.77;;;;;;;;;;1687634;85;21072;-62
2022/07/16 07:15:42;;;;;;;2.77;2.40;;;;;;;;;;1688393;85;21556;-62
2022/07/16 07:18:09;;;;;;;3.58;2.40;;;;;;;;;;1689193;85;21080;-62
2022/07/16 07:20:36;;;;;;;3.10;2.20;;;;;;;;;;1686692;83;21119;-62
2022/07/16 07:23:02;;;;;;;3.15;2.27;;;;;;;;;;1689278;83;21100;-63
2022/07/16 07:25:28;;;;;;;5.15;2.17;;;;;;;;;;1688396;83;21092;-62
2022/07/16 07:27:55;;;;;;;2.42;1.98;;;;;;;;;;1689091;83;21049;-62
2022/07/16 07:30:21;;;;;;;3.15;2.00;;;;;;;;;;1688618;83;21088;-62
2022/07/16 07:32:47;;;;;;;3.60;2.02;;;;;;;;;;1685711;83;20943;-63
2022/07/16 07:35:13;;;;;;;3.40;2.00;;;;;;;;;;1689620;85;21018;-63
2022/07/16 07:37:39;;;;;;;4.10;1.80;;;;;;;;;;1687327;83;21100;-62
2022/07/16 07:40:08;;;;;;;3.15;2.10;;;;;;;;;;1686112;83;21487;-63
2022/07/16 07:42:34;;;;;;;3.30;2.00;;;;;;;;;;1687843;85;21536;-62
2022/07/16 07:45:00;;;;;;;2.80;1.98;;;;;;;;;;1681806;83;21076;-63
2022/07/16 07:47:28;;;;;;;4.03;2.20;;;;;;;;;;1687600;85;21128;-62
2022/07/16 07:49:54;;;;;;;3.50;1.95;;;;;;;;;;1686857;85;21081;-63
2022/07/16 07:52:20;;;;;;;2.22;1.90;;;;;;;;;;1688226;85;21520;-61
2022/07/16 07:54:46;;;;;;;2.70;2.00;;;;;;;;;;1688319;85;21094;-62
2022/07/16 07:57:12;;;;;;;3.98;2.10;;;;;;;;;;1688221;85;21556;-61
2022/07/16 07:59:39;;;;;;;3.80;1.90;;;;;;;;;;1687431;85;21055;-61
2022/07/16 08:02:05;;;;;;;3.52;1.98;;;;;;;;;;1671932;85;21074;-63
2022/07/16 08:04:33;;;;;;;1.80;1.65;;;;;;;;;;1670547;85;21583;-63
2022/07/16 08:06:59;;;;;;;4.37;1.90;;;;;;;;;;1699213;84;21065;-63
2022/07/16 08:09:25;;;;;;;2.92;1.70;;;;;;;;;;1701384;84;21527;-64
2022/07/16 08:11:52;;;;;;;2.52;1.60;;;;;;;;;;1700149;84;21040;-64
2022/07/16 08:14:17;;;;;;;3.17;1.98;;;;;;;;;;1697040;84;21076;-63
2022/07/16 08:16:45;;;;;;;4.65;1.90;;;;;;;;;;1700813;84;21017;-64
2022/07/16 08:19:11;;;;;;;2.60;1.65;;;;;;;;;;1700394;84;21025;-64
2022/07/16 08:21:37;;;;;;;5.05;1.90;;;;;;;;;;1701306;84;21048;-63
2022/07/16 08:26:49;;;;;;;3.27;1.85;;;;;;;;;;1701603;84;21176;-63
2022/07/16 08:29:15;;;;;;;2.02;1.72;;;;;;;;;;1701513;84;21107;-63
2022/07/16 08:31:40;;;;;;;2.72;1.65;;;;;;;;;;1694065;84;21026;-64
2022/07/16 08:34:07;;;;;;;2.27;1.65;;;;;;;;;;1702228;84;21555;-63
2022/07/16 08:36:33;;;;;;;3.25;1.67;;;;;;;;;;1701285;84;21476;-63
2022/07/16 08:39:00;;;;;;;5.47;2.15;;;;;;;;;;1700266;84;21052;-63
2022/07/16 08:41:27;;;;;;;3.77;2.25;;;;;;;;;;1696202;84;21063;-62
2022/07/16 08:43:53;;;;;;;4.50;2.12;;;;;;;;;;1701368;84;21593;-62
2022/07/16 08:46:22;;;;;;;2.33;1.70;;;;;;;;;;1699684;84;21560;-63
2022/07/16 08:48:48;;;;;;;3.15;1.72;;;;;;;;;;1696980;84;21048;-64
2022/07/16 08:51:15;;;;;;;2.83;2.02;;;;;;;;;;1700817;84;21064;-63
2022/07/16 08:53:41;;;;;;;3.52;1.80;;;;;;;;;;1700130;84;21072;-64
2022/07/16 08:56:07;;;;;;;2.67;1.90;;;;;;;;;;1700104;84;22305;-63
2022/07/16 08:58:33;;;;;;;4.95;1.90;;;;;;;;;;1694297;84;21464;-64
2022/07/16 09:00:59;;;;;;;2.52;1.70;;;;;;;;;;1700849;84;21028;-64
2022/07/16 09:03:25;;;;;;;3.70;1.90;;;;;;;;;;1702807;84;21080;-63
2022/07/16 09:05:51;;;;;;;2.33;1.67;;;;;;;;;;1691232;84;21022;-64
2022/07/16 09:08:18;;;;;;;2.77;1.98;;;;;;;;;;1684343;84;21041;-63
2022/07/16 09:10:45;;;;;;;2.40;1.80;;;;;;;;;;1686160;85;21042;-63
2022/07/16 09:13:11;;;;;;;3.05;1.67;;;;;;;;;;1683806;84;21512;-62
2022/07/16 09:15:39;;;;;;;2.65;1.90;;;;;;;;;;1683439;84;21069;-63
2022/07/16 09:18:21;;;;;;;3.55;1.85;;;;;;;;;;1680446;85;21529;-65
2022/07/16 09:20:52;;;;;;;2.60;1.90;;;;;;;;;;1682841;84;21547;-64
2022/07/16 09:23:29;;;;;;;3.37;1.90;;;;;;;;;;1684372;84;21582;-64
2022/07/16 09:25:57;;;;;;;4.08;1.95;;;;;;;;;;1683626;85;21482;-64
2022/07/16 09:28:23;;;;;;;2.27;1.98;;;;;;;;;;1683729;84;21128;-63
2022/07/16 09:30:50;;;;;;;2.52;2.08;;;;;;;;;;1686124;84;21085;-64
2022/07/16 09:33:17;;;;;;;3.45;1.80;;;;;;;;;;1684927;84;21066;-63
2022/07/16 09:35:44;;;;;;;2.67;2.00;;;;;;;;;;1682051;85;21098;-63
2022/07/16 09:38:10;;;;;;;2.62;1.80;;;;;;;;;;1675990;85;21098;-64
2022/07/16 09:40:38;;;;;;;7.45;2.00;;;;;;;;;;1677531;84;21507;-64
2022/07/16 09:43:06;;;;;;;2.35;1.80;;;;;;;;;;1676533;85;21109;-63
2022/07/16 09:45:32;;;;;;;4.17;2.02;;;;;;;;;;1684070;84;21038;-64
2022/07/16 09:47:59;;;;;;;2.47;1.85;;;;;;;;;;1679782;84;21032;-64
2022/07/16 09:50:27;;;;;;;3.30;2.10;;;;;;;;;;1672215;84;21041;-65
2022/07/16 09:52:53;;;;;;;4.60;1.92;;;;;;;;;;1674687;85;21045;-64
2022/07/16 09:55:20;;;;;;;2.45;1.82;;;;;;;;;;1683571;84;21533;-63
2022/07/16 09:57:47;;;;;;;5.00;1.92;;;;;;;;;;1681037;85;21085;-64
2022/07/16 10:00:16;;;;;;;3.72;2.08;;;;;;;;;;1672943;83;21096;-65
2022/07/16 10:02:42;;;;;;;1.87;1.67;;;;;;;;;;1684880;83;21120;-64
2022/07/16 10:05:08;;;;;;;3.52;1.90;;;;;;;;;;1678225;84;21049;-63
2022/07/16 10:07:35;;;;;;;5.08;2.02;;;;;;;;;;1687460;84;21113;-65
2022/07/16 10:10:01;;;;;;;2.25;1.80;;;;;;;;;;1680606;85;21051;-64
2022/07/16 10:12:29;;;;;;;3.42;2.00;;;;;;;;;;1686999;84;21084;-65
2022/07/16 10:14:55;;;;;;;3.55;2.10;;;;;;;;;;1696690;84;21528;-63
2022/07/16 10:17:26;;;;;;;3.37;2.05;;;;;;;;;;1680749;84;21243;-63
2022/07/16 10:19:58;;;;;;;3.55;2.40;;;;;;;;;;1684078;84;21015;-63
2022/07/16 10:22:29;;;;;;;3.42;2.20;;;;;;;;;;1683793;84;21076;-63
2022/07/16 10:24:55;;;;;;;3.80;2.12;;;;;;;;;;1691581;84;21028;-63
2022/07/16 10:27:23;;;;;;;4.25;2.27;;;;;;;;;;1685098;83;21092;-64
2022/07/16 10:29:50;;;;;;;2.40;1.77;;;;;;;;;;1685005;84;21058;-65
2022/07/16 10:32:29;;;;;;;3.15;1.70;;;;;;;;;;1685390;84;21519;-62
2022/07/16 10:34:55;;;;;;;3.22;1.85;;;;;;;;;;1687953;84;21563;-63
2022/07/16 10:37:25;;;;;;;2.40;1.85;;;;;;;;;;1686259;84;21563;-64
2022/07/16 10:39:59;;;;;;;3.17;2.10;;;;;;;;;;1687467;84;21001;-63
2022/07/16 10:42:25;;;;;;;3.12;2.00;;;;;;;;;;1684032;84;21037;-63
2022/07/16 10:44:51;;;;;;;5.37;2.10;;;;;;;;;;1687460;83;21076;-63
2022/07/16 10:47:17;;;;;;;2.20;1.72;;;;;;;;;;1697480;84;20997;-64
2022/07/16 10:49:44;;;;;;;3.95;2.00;;;;;;;;;;1689263;84;21112;-70
2022/07/16 10:55:12;;;;;;;4.03;2.20;;;;;;;;;;1799240;79;23036;-73
2022/07/16 10:57:43;;;;;;;4.50;2.40;;;;;;;;;;1743284;81;20981;-73
2022/07/16 11:00:08;;;;;;;5.58;2.12;;;;;;;;;;1772820;80;21114;-71
2022/07/16 11:02:38;;;;;;;5.12;2.37;;;;;;;;;;1738562;81;21217;-72
2022/07/16 11:05:05;;;;;;;3.95;2.10;;;;;;;;;;1725938;83;21017;-72
2022/07/16 11:07:33;;;;;;;6.80;3.08;;;;;;;;;;1725469;83;21104;-72
2022/07/16 11:10:01;;;;;;;4.60;2.00;;;;;;;;;;1726223;81;21547;-73
2022/07/16 11:12:29;;;;;;;4.28;2.37;;;;;;;;;;1728607;83;21048;-71
2022/07/16 11:14:55;;;;;;;6.70;2.20;;;;;;;;;;1731155;83;21518;-72
2022/07/16 11:17:24;;;;;;;6.22;2.40;;;;;;;;;;1691101;85;21044;-72
2022/07/16 11:19:51;;;;;;;5.03;2.35;;;;;;;;;;1674300;84;22181;-72
2022/07/16 11:22:18;;;;;;;4.50;2.42;;;;;;;;;;1694215;83;21084;-73
2022/07/16 11:24:45;;;;;;;2.65;1.90;;;;;;;;;;1694851;84;21443;-72
2022/07/16 11:27:12;;;;;;;3.00;2.20;;;;;;;;;;1673987;83;21055;-73
2022/07/16 11:29:38;;;;;;;3.47;2.25;;;;;;;;;;1684779;84;21079;-71
2022/07/16 11:32:04;;;;;;;2.77;1.98;;;;;;;;;;1677868;84;21055;-71
2022/07/16 11:34:34;;;;;;;2.33;1.90;;;;;;;;;;1681610;84;21048;-71
2022/07/16 11:37:01;;;;;;;3.90;2.12;;;;;;;;;;1719079;83;21151;-73
2022/07/16 11:39:28;;;;;;;2.80;2.10;;;;;;;;;;1727495;83;21126;-71
2022/07/16 11:41:55;;;;;;;2.52;2.00;;;;;;;;;;1707840;83;21491;-72
2022/07/16 11:44:22;;;;;;;3.02;2.40;;;;;;;;;;1696992;83;21031;-72
2022/07/16 11:46:49;;;;;;;3.62;2.02;;;;;;;;;;1698711;83;21055;-72
2022/07/16 11:49:25;;;;;;;2.75;1.98;;;;;;;;;;1681374;85;21573;-72
2022/07/16 11:51:53;;;;;;;5.15;3.80;;;;;;;;;;1695333;84;21587;-72
2022/07/16 11:54:19;;;;;;;3.33;2.42;;;;;;;;;;1690605;83;21060;-71
2022/07/16 11:56:45;;;;;;;4.85;2.17;;;;;;;;;;1715670;82;21000;-72
2022/07/16 11:59:28;;;;;;;5.95;2.15;;;;;;;;;;1717361;82;21229;-71
2022/07/16 12:02:01;;;;;;;2.62;2.10;;;;;;;;;;1689923;83;21056;-72
2022/07/16 12:04:34;;;;;;;4.55;2.67;;;;;;;;;;1699577;82;21017;-72
2022/07/16 12:07:00;;;;;;;3.70;2.35;;;;;;;;;;1719980;82;21057;-73
2022/07/16 12:09:30;;;;;;;5.17;2.60;;;;;;;;;;1715116;82;21040;-72
2022/07/16 12:12:00;;;;;;;3.55;2.40;;;;;;;;;;1738946;82;21018;-74
2022/07/16 12:14:42;;;;;;;3.00;2.08;;;;;;;;;;1681766;84;21528;-73
2022/07/16 12:17:19;;;;;;;4.00;2.17;;;;;;;;;;1726451;81;21076;-73
2022/07/16 12:20:04;;;;;;;4.42;2.40;;;;;;;;;;1662258;83;21094;-71
2022/07/16 12:22:47;;;;;;;2.60;2.12;;;;;;;;;;1716853;82;21104;-71
2022/07/16 12:25:18;;;;;;;2.10;1.90;;;;;;;;;;1714713;82;20980;-72
2022/07/16 12:27:45;;;;;;;3.42;2.00;;;;;;;;;;1742877;82;21063;-71
2022/07/16 12:30:11;;;;;;;3.62;2.20;;;;;;;;;;1713773;82;21513;-72
2022/07/16 12:32:50;;;;;;;2.58;2.10;;;;;;;;;;1689047;85;21033;-72
2022/07/16 12:35:21;;;;;;;2.45;1.80;;;;;;;;;;1713368;82;21514;-71
2022/07/16 12:37:49;;;;;;;5.03;2.10;;;;;;;;;;1697679;82;21037;-72
2022/07/16 12:40:15;;;;;;;2.87;2.00;;;;;;;;;;1719218;82;21013;-71
2022/07/16 12:42:41;;;;;;;5.03;2.40;;;;;;;;;;1719368;82;21525;-71
2022/07/16 12:45:08;;;;;;;4.45;2.40;;;;;;;;;;1711739;83;22138;-72
2022/07/16 12:47:34;;;;;;;3.72;2.00;;;;;;;;;;1715999;82;21009;-72
2022/07/16 12:50:00;;;;;;;3.20;2.42;;;;;;;;;;1716368;82;21108;-72
2022/07/16 12:52:27;;;;;;;2.77;1.95;;;;;;;;;;1715507;82;21034;-71
2022/07/16 13:00:26;;;;;;;4.33;2.05;;;;;;;;;;1711745;83;21088;-71
2022/07/16 13:02:52;;;;;;;3.20;2.12;;;;;;;;;;1715152;82;21139;-73
2022/07/16 13:05:18;;;;;;;2.98;2.10;;;;;;;;;;1712791;82;21548;-73
2022/07/16 13:07:44;;;;;;;2.75;2.08;;;;;;;;;;1712631;83;21037;-71
2022/07/16 13:10:10;;;;;;;3.35;1.77;;;;;;;;;;1676640;85;21168;-72
2022/07/16 13:12:36;;;;;;;3.83;2.08;;;;;;;;;;1714777;82;21065;-72
2022/07/16 13:15:03;;;;;;;5.22;2.00;;;;;;;;;;1716793;82;21045;-72
2022/07/16 13:17:29;;;;;;;2.58;1.98;;;;;;;;;;1717165;82;21473;-71
2022/07/16 13:19:55;;;;;;;2.55;1.92;;;;;;;;;;1718175;83;21562;-72
2022/07/16 13:22:21;;;;;;;4.47;2.33;;;;;;;;;;1677464;83;21028;-72
2022/07/16 13:24:47;;;;;;;4.05;2.10;;;;;;;;;;1718241;82;21005;-72
2022/07/16 13:27:14;;;;;;;2.95;2.25;;;;;;;;;;1715496;82;21524;-72
2022/07/16 13:29:40;;;;;;;3.42;2.20;;;;;;;;;;1729222;82;21080;-72
2022/07/16 13:32:08;;;;;;;3.50;2.20;;;;;;;;;;1713375;82;20976;-72
2022/07/16 13:34:34;;;;;;;3.52;2.08;;;;;;;;;;1677037;85;21088;-72
2022/07/16 13:37:00;;;;;;;4.28;2.00;;;;;;;;;;1713388;82;21040;-73
2022/07/16 13:39:27;;;;;;;4.33;2.30;;;;;;;;;;1712602;82;21080;-73
2022/07/16 13:41:55;;;;;;;2.92;1.98;;;;;;;;;;1712085;83;21599;-73
2022/07/16 13:44:21;;;;;;;4.60;2.25;;;;;;;;;;1712527;84;20966;-70
2022/07/16 13:46:47;;;;;;;3.65;2.45;;;;;;;;;;1713101;82;21041;-72
2022/07/16 13:49:14;;;;;;;17.20;3.00;;;;;;;;;;1712202;82;21109;-72
2022/07/16 13:51:40;;;;;;;3.55;2.15;;;;;;;;;;1712579;82;21020;-73
2022/07/16 13:54:08;;;;;;;7.65;2.70;;;;;;;;;;1715842;82;21389;-75
2022/07/16 13:56:35;;;;;;;4.60;2.37;;;;;;;;;;1716207;83;21089;-74
2022/07/16 13:59:00;;;;;;;5.37;2.15;;;;;;;;;;1713014;82;20989;-72
2022/07/16 14:01:26;;;;;;;30.88;26.12;;;;;;;;;;1678296;83;21126;-71
2022/07/16 14:03:52;;;;;;;16.32;13.28;;;;;;;;;;1714192;82;21576;-71
2022/07/16 14:06:20;;;;;;;15.78;12.65;;;;;;;;;;1715144;82;21009;-78
2022/07/16 14:08:48;;;;;;;7.87;3.30;;;;;;;;;;1715150;83;21031;-75
2022/07/16 14:11:15;;;;;;;3.95;2.60;;;;;;;;;;1716546;82;20976;-75
2022/07/16 14:13:42;;;;;;;3.15;2.40;;;;;;;;;;1712954;83;21260;-78
2022/07/16 14:16:09;;;;;;;15.78;13.48;;;;;;;;;;1718747;82;21057;-79
2022/07/16 14:18:35;;;;;;;22.05;16.95;;;;;;;;;;1724772;81;21020;-74
2022/07/16 14:21:01;;;;;;;16.55;12.35;;;;;;;;;;1711803;82;21049;-75
2022/07/16 14:23:29;;;;;;;5.58;2.60;;;;;;;;;;1727174;82;21021;-75
2022/07/16 14:25:55;;;;;;;7.47;2.40;;;;;;;;;;1716231;82;21196;-75
2022/07/16 14:28:21;;;;;;;4.60;2.65;;;;;;;;;;1742850;82;21029;-74
2022/07/16 14:30:47;;;;;;;4.75;3.50;;;;;;;;;;1722563;82;21548;-76
2022/07/16 14:33:14;;;;;;;4.30;2.67;;;;;;;;;;1718381;82;21091;-74
2022/07/16 14:35:40;;;;;;;4.22;2.30;;;;;;;;;;1716471;82;21025;-74
2022/07/16 14:38:06;;;;;;;3.72;2.12;;;;;;;;;;1729083;81;21063;-75
2022/07/16 14:40:32;;;;;;;4.22;2.75;;;;;;;;;;1730924;82;21027;-76
2022/07/16 14:42:59;;;;;;;10.43;3.17;;;;;;;;;;1728794;82;21026;-74
2022/07/16 14:45:26;;;;;;;4.80;3.15;;;;;;;;;;1732901;82;21340;-74
2022/07/16 14:47:52;;;;;;;4.55;2.17;;;;;;;;;;1717070;82;21064;-74
2022/07/16 14:50:19;;;;;;;3.60;2.00;;;;;;;;;;1718062;82;21020;-75
2022/07/16 14:52:46;;;;;;;5.03;2.60;;;;;;;;;;1724687;82;22131;-75
2022/07/16 14:55:12;;;;;;;4.67;2.40;;;;;;;;;;1714880;82;21021;-75
2022/07/16 14:57:39;;;;;;;4.00;2.10;;;;;;;;;;1713386;82;21088;-74
2022/07/16 15:00:07;;;;;;;2.22;2.02;;;;;;;;;;1714027;82;21097;-75